sensor_id;sensor_type;location;lat;lon;timestamp;P1;durP1;ratioP1;P2;durP2;ratioP2
24173;SDS011;12324;48.146;11.502;2022-11-15T00:02:21;573.83;;;546.40;;
24173;SDS011;12324;48.146;11.502;2022-11-15T00:04:49;564.67;;;538.05;;
24173;SDS011;12324;48.146;11.502;2022-11-15T00:07:16;559.95;;;533.63;;
24173;SDS011;12324;48.146;11.502;2022-11-15T00:10:03;558.75;;;532.70;;
24173;SDS011;12324;48.146;11.502;2022-11-15T00:12:30;543.33;;;518.25;;
24173;SDS011;12324;48.146;11.502;2022-11-15T00:14:57;527.85;;;503.63;;
24173;SDS011;12324;48.146;11.502;2022-11-15T00:17:24;501.63;;;479.23;;
24173;SDS011;12324;48.146;11.502;2022-11-15T00:19:51;469.00;;;448.85;;
24173;SDS011;12324;48.146;11.502;2022-11-15T00:22:18;439.88;;;421.35;;
24173;SDS011;12324;48.146;11.502;2022-11-15T00:24:45;397.73;;;381.48;;
24173;SDS011;12324;48.146;11.502;2022-11-15T00:27:12;368.75;;;353.88;;
24173;SDS011;12324;48.146;11.502;2022-11-15T00:29:39;343.13;;;329.38;;
24173;SDS011;12324;48.146;11.502;2022-11-15T00:32:09;302.27;;;290.40;;
24173;SDS011;12324;48.146;11.502;2022-11-15T00:34:36;283.45;;;272.17;;
24173;SDS011;12324;48.146;11.502;2022-11-15T00:37:03;268.55;;;257.88;;
24173;SDS011;12324;48.146;11.502;2022-11-15T00:39:30;258.90;;;248.70;;
24173;SDS011;12324;48.146;11.502;2022-11-15T00:41:57;230.30;;;220.90;;
24173;SDS011;12324;48.146;11.502;2022-11-15T00:44:24;226.43;;;217.43;;
24173;SDS011;12324;48.146;11.502;2022-11-15T00:46:52;227.20;;;218.10;;
24173;SDS011;12324;48.146;11.502;2022-11-15T00:49:19;224.18;;;215.10;;
24173;SDS011;12324;48.146;11.502;2022-11-15T00:51:46;223.35;;;214.18;;
24173;SDS011;12324;48.146;11.502;2022-11-15T00:54:13;202.48;;;194.18;;
24173;SDS011;12324;48.146;11.502;2022-11-15T00:56:40;199.25;;;190.57;;
24173;SDS011;12324;48.146;11.502;2022-11-15T00:59:07;194.45;;;186.48;;
24173;SDS011;12324;48.146;11.502;2022-11-15T01:01:34;190.68;;;182.52;;
24173;SDS011;12324;48.146;11.502;2022-11-15T01:04:01;162.43;;;155.43;;
24173;SDS011;12324;48.146;11.502;2022-11-15T01:06:28;158.02;;;151.43;;
24173;SDS011;12324;48.146;11.502;2022-11-15T01:08:55;162.43;;;155.60;;
24173;SDS011;12324;48.146;11.502;2022-11-15T01:11:22;162.18;;;155.20;;
24173;SDS011;12324;48.146;11.502;2022-11-15T01:13:49;148.32;;;141.93;;
24173;SDS011;12324;48.146;11.502;2022-11-15T01:16:17;136.27;;;130.27;;
24173;SDS011;12324;48.146;11.502;2022-11-15T01:18:44;124.00;;;118.10;;
24173;SDS011;12324;48.146;11.502;2022-11-15T01:21:13;113.95;;;108.47;;
24173;SDS011;12324;48.146;11.502;2022-11-15T01:23:40;118.00;;;112.43;;
24173;SDS011;12324;48.146;11.502;2022-11-15T01:26:10;105.13;;;99.93;;
24173;SDS011;12324;48.146;11.502;2022-11-15T01:28:38;94.13;;;89.63;;
24173;SDS011;12324;48.146;11.502;2022-11-15T01:31:06;90.97;;;86.43;;
24173;SDS011;12324;48.146;11.502;2022-11-15T01:33:34;84.35;;;80.25;;
24173;SDS011;12324;48.146;11.502;2022-11-15T01:36:05;83.38;;;79.30;;
24173;SDS011;12324;48.146;11.502;2022-11-15T01:38:33;78.10;;;74.15;;
24173;SDS011;12324;48.146;11.502;2022-11-15T01:41:00;85.30;;;81.22;;
24173;SDS011;12324;48.146;11.502;2022-11-15T01:43:31;88.13;;;83.90;;
24173;SDS011;12324;48.146;11.502;2022-11-15T01:46:04;82.75;;;78.65;;
24173;SDS011;12324;48.146;11.502;2022-11-15T01:48:33;74.00;;;70.43;;
24173;SDS011;12324;48.146;11.502;2022-11-15T01:51:01;76.32;;;72.50;;
24173;SDS011;12324;48.146;11.502;2022-11-15T01:53:29;74.57;;;70.78;;
24173;SDS011;12324;48.146;11.502;2022-11-15T01:55:58;73.05;;;69.45;;
24173;SDS011;12324;48.146;11.502;2022-11-15T01:58:29;71.20;;;67.55;;
24173;SDS011;12324;48.146;11.502;2022-11-15T02:00:56;65.40;;;61.80;;
24173;SDS011;12324;48.146;11.502;2022-11-15T02:03:25;64.35;;;60.90;;
24173;SDS011;12324;48.146;11.502;2022-11-15T02:05:53;64.57;;;61.22;;
24173;SDS011;12324;48.146;11.502;2022-11-15T02:08:20;66.55;;;63.03;;
24173;SDS011;12324;48.146;11.502;2022-11-15T02:10:47;64.45;;;61.05;;
24173;SDS011;12324;48.146;11.502;2022-11-15T02:13:14;64.15;;;60.65;;
24173;SDS011;12324;48.146;11.502;2022-11-15T02:15:54;62.20;;;58.75;;
24173;SDS011;12324;48.146;11.502;2022-11-15T02:18:28;61.10;;;57.83;;
24173;SDS011;12324;48.146;11.502;2022-11-15T02:23:53;59.60;;;56.35;;
24173;SDS011;12324;48.146;11.502;2022-11-15T02:26:29;55.85;;;52.53;;
24173;SDS011;12324;48.146;11.502;2022-11-15T02:29:05;61.05;;;57.58;;
24173;SDS011;12324;48.146;11.502;2022-11-15T02:41:47;63.15;;;59.60;;
24173;SDS011;12324;48.146;11.502;2022-11-15T02:44:17;68.40;;;64.85;;
24173;SDS011;12324;48.146;11.502;2022-11-15T02:46:50;67.78;;;64.28;;
24173;SDS011;12324;48.146;11.502;2022-11-15T02:49:36;64.15;;;60.72;;
24173;SDS011;12324;48.146;11.502;2022-11-15T02:52:04;66.40;;;62.95;;
24173;SDS011;12324;48.146;11.502;2022-11-15T02:54:32;70.57;;;67.00;;
24173;SDS011;12324;48.146;11.502;2022-11-15T02:57:02;76.65;;;72.72;;
24173;SDS011;12324;48.146;11.502;2022-11-15T03:02:32;71.68;;;67.95;;
24173;SDS011;12324;48.146;11.502;2022-11-15T03:12:59;84.70;;;80.50;;
24173;SDS011;12324;48.146;11.502;2022-11-15T03:15:29;86.43;;;82.30;;
24173;SDS011;12324;48.146;11.502;2022-11-15T03:17:59;93.32;;;89.00;;
24173;SDS011;12324;48.146;11.502;2022-11-15T03:20:27;101.60;;;96.80;;
24173;SDS011;12324;48.146;11.502;2022-11-15T03:22:55;108.78;;;103.70;;
24173;SDS011;12324;48.146;11.502;2022-11-15T03:25:24;120.40;;;115.00;;
24173;SDS011;12324;48.146;11.502;2022-11-15T03:27:54;136.13;;;130.15;;
24173;SDS011;12324;48.146;11.502;2022-11-15T03:30:22;145.90;;;139.45;;
24173;SDS011;12324;48.146;11.502;2022-11-15T03:32:56;176.20;;;169.02;;
24173;SDS011;12324;48.146;11.502;2022-11-15T03:35:24;172.30;;;164.65;;
24173;SDS011;12324;48.146;11.502;2022-11-15T03:40:21;166.88;;;159.93;;
24173;SDS011;12324;48.146;11.502;2022-11-15T03:43:04;181.13;;;173.60;;
24173;SDS011;12324;48.146;11.502;2022-11-15T03:45:39;200.73;;;192.63;;
24173;SDS011;12324;48.146;11.502;2022-11-15T03:48:12;214.10;;;205.55;;
24173;SDS011;12324;48.146;11.502;2022-11-15T03:50:41;221.15;;;212.40;;
24173;SDS011;12324;48.146;11.502;2022-11-15T03:53:09;236.70;;;227.25;;
24173;SDS011;12324;48.146;11.502;2022-11-15T03:55:36;239.68;;;230.00;;
24173;SDS011;12324;48.146;11.502;2022-11-15T03:58:03;243.77;;;234.15;;
24173;SDS011;12324;48.146;11.502;2022-11-15T04:00:30;238.05;;;228.15;;
24173;SDS011;12324;48.146;11.502;2022-11-15T04:02:58;266.73;;;255.77;;
24173;SDS011;12324;48.146;11.502;2022-11-15T04:05:25;284.63;;;273.20;;
24173;SDS011;12324;48.146;11.502;2022-11-15T04:07:52;285.60;;;274.30;;
24173;SDS011;12324;48.146;11.502;2022-11-15T04:10:19;305.52;;;293.42;;
24173;SDS011;12324;48.146;11.502;2022-11-15T04:12:46;305.83;;;293.70;;
24173;SDS011;12324;48.146;11.502;2022-11-15T04:15:17;325.33;;;312.38;;
24173;SDS011;12324;48.146;11.502;2022-11-15T04:17:49;344.33;;;330.20;;
24173;SDS011;12324;48.146;11.502;2022-11-15T04:20:17;377.73;;;362.50;;
24173;SDS011;12324;48.146;11.502;2022-11-15T04:23:05;400.48;;;384.33;;
24173;SDS011;12324;48.146;11.502;2022-11-15T04:25:51;406.13;;;389.65;;
24173;SDS011;12324;48.146;11.502;2022-11-15T04:28:19;423.70;;;406.05;;
24173;SDS011;12324;48.146;11.502;2022-11-15T04:30:46;420.15;;;402.73;;
24173;SDS011;12324;48.146;11.502;2022-11-15T04:33:14;413.65;;;396.65;;
24173;SDS011;12324;48.146;11.502;2022-11-15T04:35:41;416.67;;;399.45;;
24173;SDS011;12324;48.146;11.502;2022-11-15T04:38:09;416.05;;;398.92;;
24173;SDS011;12324;48.146;11.502;2022-11-15T04:40:37;411.80;;;394.98;;
24173;SDS011;12324;48.146;11.502;2022-11-15T04:43:04;428.63;;;410.65;;
24173;SDS011;12324;48.146;11.502;2022-11-15T04:45:31;445.70;;;426.70;;
24173;SDS011;12324;48.146;11.502;2022-11-15T04:47:58;458.58;;;439.15;;
24173;SDS011;12324;48.146;11.502;2022-11-15T04:50:25;477.63;;;456.92;;
24173;SDS011;12324;48.146;11.502;2022-11-15T04:52:53;485.70;;;464.65;;
24173;SDS011;12324;48.146;11.502;2022-11-15T04:55:20;495.77;;;473.77;;
24173;SDS011;12324;48.146;11.502;2022-11-15T04:57:47;501.52;;;479.15;;
24173;SDS011;12324;48.146;11.502;2022-11-15T05:00:15;490.23;;;468.77;;
24173;SDS011;12324;48.146;11.502;2022-11-15T05:02:43;491.60;;;470.05;;
24173;SDS011;12324;48.146;11.502;2022-11-15T05:05:28;506.23;;;483.80;;
24173;SDS011;12324;48.146;11.502;2022-11-15T05:07:55;514.38;;;491.33;;
24173;SDS011;12324;48.146;11.502;2022-11-15T05:10:22;525.92;;;502.15;;
24173;SDS011;12324;48.146;11.502;2022-11-15T05:12:49;535.33;;;510.98;;
24173;SDS011;12324;48.146;11.502;2022-11-15T05:15:16;521.75;;;498.27;;
24173;SDS011;12324;48.146;11.502;2022-11-15T05:17:43;527.58;;;503.50;;
24173;SDS011;12324;48.146;11.502;2022-11-15T05:20:10;528.60;;;504.63;;
24173;SDS011;12324;48.146;11.502;2022-11-15T05:22:37;536.08;;;511.58;;
24173;SDS011;12324;48.146;11.502;2022-11-15T05:25:05;559.65;;;533.45;;
24173;SDS011;12324;48.146;11.502;2022-11-15T05:27:33;581.72;;;554.22;;
24173;SDS011;12324;48.146;11.502;2022-11-15T05:30:00;597.90;;;569.13;;
24173;SDS011;12324;48.146;11.502;2022-11-15T05:32:27;606.50;;;577.20;;
24173;SDS011;12324;48.146;11.502;2022-11-15T05:34:54;613.55;;;583.70;;
24173;SDS011;12324;48.146;11.502;2022-11-15T05:37:22;626.90;;;596.28;;
24173;SDS011;12324;48.146;11.502;2022-11-15T05:39:49;611.97;;;582.17;;
24173;SDS011;12324;48.146;11.502;2022-11-15T05:42:16;617.72;;;587.58;;
24173;SDS011;12324;48.146;11.502;2022-11-15T05:44:44;646.78;;;614.58;;
24173;SDS011;12324;48.146;11.502;2022-11-15T05:47:14;669.60;;;635.67;;
24173;SDS011;12324;48.146;11.502;2022-11-15T05:49:42;665.33;;;631.63;;
24173;SDS011;12324;48.146;11.502;2022-11-15T05:52:11;660.00;;;626.92;;
24173;SDS011;12324;48.146;11.502;2022-11-15T05:54:40;668.70;;;635.05;;
24173;SDS011;12324;48.146;11.502;2022-11-15T05:57:07;672.92;;;638.92;;
24173;SDS011;12324;48.146;11.502;2022-11-15T05:59:34;666.90;;;633.10;;
24173;SDS011;12324;48.146;11.502;2022-11-15T06:02:01;673.38;;;638.92;;
24173;SDS011;12324;48.146;11.502;2022-11-15T06:04:29;677.70;;;643.28;;
24173;SDS011;12324;48.146;11.502;2022-11-15T06:06:57;671.67;;;637.47;;
24173;SDS011;12324;48.146;11.502;2022-11-15T06:09:24;657.88;;;624.85;;
24173;SDS011;12324;48.146;11.502;2022-11-15T06:11:51;670.80;;;636.80;;
24173;SDS011;12324;48.146;11.502;2022-11-15T06:14:18;701.00;;;664.65;;
24173;SDS011;12324;48.146;11.502;2022-11-15T06:16:46;729.80;;;690.92;;
24173;SDS011;12324;48.146;11.502;2022-11-15T06:19:13;729.47;;;690.88;;
24173;SDS011;12324;48.146;11.502;2022-11-15T06:21:40;732.22;;;693.28;;
24173;SDS011;12324;48.146;11.502;2022-11-15T06:24:07;721.95;;;683.80;;
24173;SDS011;12324;48.146;11.502;2022-11-15T06:26:34;717.20;;;679.45;;
24173;SDS011;12324;48.146;11.502;2022-11-15T06:29:02;724.65;;;686.53;;
24173;SDS011;12324;48.146;11.502;2022-11-15T06:31:30;718.03;;;680.25;;
24173;SDS011;12324;48.146;11.502;2022-11-15T06:33:57;722.83;;;684.65;;
24173;SDS011;12324;48.146;11.502;2022-11-15T06:36:24;722.25;;;684.03;;
24173;SDS011;12324;48.146;11.502;2022-11-15T06:38:51;723.13;;;684.95;;
24173;SDS011;12324;48.146;11.502;2022-11-15T06:41:18;680.40;;;645.85;;
24173;SDS011;12324;48.146;11.502;2022-11-15T06:43:47;689.97;;;654.53;;
24173;SDS011;12324;48.146;11.502;2022-11-15T06:46:14;727.35;;;688.78;;
24173;SDS011;12324;48.146;11.502;2022-11-15T06:48:41;747.83;;;707.53;;
24173;SDS011;12324;48.146;11.502;2022-11-15T06:51:08;791.15;;;746.55;;
24173;SDS011;12324;48.146;11.502;2022-11-15T06:53:35;831.45;;;782.92;;
24173;SDS011;12324;48.146;11.502;2022-11-15T06:56:05;843.22;;;793.30;;
24173;SDS011;12324;48.146;11.502;2022-11-15T06:58:33;846.38;;;796.20;;
24173;SDS011;12324;48.146;11.502;2022-11-15T07:01:10;837.40;;;788.28;;
24173;SDS011;12324;48.146;11.502;2022-11-15T07:03:39;822.00;;;774.40;;
24173;SDS011;12324;48.146;11.502;2022-11-15T07:06:07;808.42;;;762.22;;
24173;SDS011;12324;48.146;11.502;2022-11-15T07:08:35;805.88;;;760.10;;
24173;SDS011;12324;48.146;11.502;2022-11-15T07:11:04;791.58;;;747.25;;
24173;SDS011;12324;48.146;11.502;2022-11-15T07:13:31;779.47;;;736.13;;
24173;SDS011;12324;48.146;11.502;2022-11-15T07:16:03;777.85;;;734.90;;
24173;SDS011;12324;48.146;11.502;2022-11-15T07:18:32;761.60;;;720.08;;
24173;SDS011;12324;48.146;11.502;2022-11-15T07:21:00;748.92;;;708.47;;
24173;SDS011;12324;48.146;11.502;2022-11-15T07:23:28;746.40;;;706.10;;
24173;SDS011;12324;48.146;11.502;2022-11-15T07:25:58;747.30;;;707.00;;
24173;SDS011;12324;48.146;11.502;2022-11-15T07:28:26;748.60;;;708.03;;
24173;SDS011;12324;48.146;11.502;2022-11-15T07:30:54;742.05;;;702.28;;
24173;SDS011;12324;48.146;11.502;2022-11-15T07:33:21;726.38;;;687.53;;
24173;SDS011;12324;48.146;11.502;2022-11-15T07:35:48;725.65;;;687.20;;
24173;SDS011;12324;48.146;11.502;2022-11-15T07:38:16;716.25;;;678.72;;
24173;SDS011;12324;48.146;11.502;2022-11-15T07:40:46;715.20;;;677.78;;
24173;SDS011;12324;48.146;11.502;2022-11-15T07:43:13;716.40;;;678.63;;
24173;SDS011;12324;48.146;11.502;2022-11-15T07:45:44;702.30;;;665.78;;
24173;SDS011;12324;48.146;11.502;2022-11-15T07:48:11;699.15;;;662.97;;
24173;SDS011;12324;48.146;11.502;2022-11-15T07:50:41;682.63;;;647.67;;
24173;SDS011;12324;48.146;11.502;2022-11-15T07:53:09;684.67;;;649.85;;
24173;SDS011;12324;48.146;11.502;2022-11-15T07:55:36;666.83;;;633.00;;
24173;SDS011;12324;48.146;11.502;2022-11-15T07:58:07;649.72;;;617.38;;
24173;SDS011;12324;48.146;11.502;2022-11-15T08:00:35;621.20;;;590.78;;
24173;SDS011;12324;48.146;11.502;2022-11-15T08:03:06;606.15;;;576.90;;
24173;SDS011;12324;48.146;11.502;2022-11-15T08:05:34;583.05;;;555.20;;
24173;SDS011;12324;48.146;11.502;2022-11-15T08:08:01;557.78;;;531.80;;
24173;SDS011;12324;48.146;11.502;2022-11-15T08:10:29;526.97;;;502.90;;
24173;SDS011;12324;48.146;11.502;2022-11-15T08:13:05;509.90;;;487.08;;
24173;SDS011;12324;48.146;11.502;2022-11-15T08:15:33;494.50;;;472.92;;
24173;SDS011;12324;48.146;11.502;2022-11-15T08:18:03;473.90;;;453.20;;
24173;SDS011;12324;48.146;11.502;2022-11-15T08:20:30;447.10;;;428.30;;
24173;SDS011;12324;48.146;11.502;2022-11-15T08:22:58;429.67;;;411.85;;
24173;SDS011;12324;48.146;11.502;2022-11-15T08:25:26;397.73;;;381.52;;
24173;SDS011;12324;48.146;11.502;2022-11-15T08:27:54;369.05;;;354.20;;
24173;SDS011;12324;48.146;11.502;2022-11-15T08:30:21;336.77;;;323.45;;
24173;SDS011;12324;48.146;11.502;2022-11-15T08:32:49;1999.90;;;999.90;;
24173;SDS011;12324;48.146;11.502;2022-11-15T08:35:16;1999.90;;;999.90;;
24173;SDS011;12324;48.146;11.502;2022-11-15T08:37:44;1999.90;;;999.90;;
24173;SDS011;12324;48.146;11.502;2022-11-15T08:40:11;1999.90;;;999.90;;
24173;SDS011;12324;48.146;11.502;2022-11-15T08:42:39;1999.90;;;999.90;;
24173;SDS011;12324;48.146;11.502;2022-11-15T08:45:07;1999.90;;;999.90;;
24173;SDS011;12324;48.146;11.502;2022-11-15T08:47:34;1999.90;;;999.90;;
24173;SDS011;12324;48.146;11.502;2022-11-15T08:50:01;1999.90;;;999.90;;
24173;SDS011;12324;48.146;11.502;2022-11-15T08:52:28;1999.90;;;999.90;;
24173;SDS011;12324;48.146;11.502;2022-11-15T08:54:55;1999.90;;;999.90;;
24173;SDS011;12324;48.146;11.502;2022-11-15T08:57:23;1999.90;;;999.90;;
24173;SDS011;12324;48.146;11.502;2022-11-15T08:59:50;1999.90;;;999.90;;
24173;SDS011;12324;48.146;11.502;2022-11-15T09:02:17;1999.90;;;999.90;;
24173;SDS011;12324;48.146;11.502;2022-11-15T09:04:44;1999.90;;;999.90;;
24173;SDS011;12324;48.146;11.502;2022-11-15T09:07:11;1999.90;;;999.90;;
24173;SDS011;12324;48.146;11.502;2022-11-15T09:09:38;1999.90;;;999.90;;
24173;SDS011;12324;48.146;11.502;2022-11-15T09:12:05;1999.90;;;999.90;;
24173;SDS011;12324;48.146;11.502;2022-11-15T09:14:33;1999.90;;;999.90;;
24173;SDS011;12324;48.146;11.502;2022-11-15T09:17:00;1999.90;;;999.90;;
24173;SDS011;12324;48.146;11.502;2022-11-15T09:19:27;1999.90;;;999.90;;
24173;SDS011;12324;48.146;11.502;2022-11-15T09:21:54;1999.90;;;999.90;;
24173;SDS011;12324;48.146;11.502;2022-11-15T09:24:21;1999.90;;;999.90;;
24173;SDS011;12324;48.146;11.502;2022-11-15T09:26:49;1999.90;;;999.90;;
24173;SDS011;12324;48.146;11.502;2022-11-15T09:29:17;1999.90;;;999.90;;
24173;SDS011;12324;48.146;11.502;2022-11-15T09:31:44;1999.90;;;999.90;;
24173;SDS011;12324;48.146;11.502;2022-11-15T09:34:11;1999.90;;;999.90;;
24173;SDS011;12324;48.146;11.502;2022-11-15T09:36:38;1999.90;;;999.90;;
24173;SDS011;12324;48.146;11.502;2022-11-15T09:39:05;1999.90;;;999.90;;
24173;SDS011;12324;48.146;11.502;2022-11-15T09:49:13;1999.90;;;999.90;;
24173;SDS011;12324;48.146;11.502;2022-11-15T09:51:41;1999.90;;;999.90;;
24173;SDS011;12324;48.146;11.502;2022-11-15T09:54:19;1999.90;;;999.90;;
24173;SDS011;12324;48.146;11.502;2022-11-15T09:57:12;1999.90;;;999.90;;
24173;SDS011;12324;48.146;11.502;2022-11-15T10:05:18;1999.90;;;999.90;;
24173;SDS011;12324;48.146;11.502;2022-11-15T10:07:50;1999.90;;;999.90;;
24173;SDS011;12324;48.146;11.502;2022-11-15T10:13:12;1999.90;;;999.90;;
24173;SDS011;12324;48.146;11.502;2022-11-15T10:15:41;1999.90;;;999.90;;
24173;SDS011;12324;48.146;11.502;2022-11-15T10:18:15;1999.90;;;999.90;;
24173;SDS011;12324;48.146;11.502;2022-11-15T10:23:18;1999.90;;;999.90;;
24173;SDS011;12324;48.146;11.502;2022-11-15T10:25:46;1999.90;;;999.90;;
24173;SDS011;12324;48.146;11.502;2022-11-15T10:28:14;1999.90;;;999.90;;
24173;SDS011;12324;48.146;11.502;2022-11-15T10:30:43;1999.90;;;999.90;;
24173;SDS011;12324;48.146;11.502;2022-11-15T10:33:33;1999.90;;;999.90;;
24173;SDS011;12324;48.146;11.502;2022-11-15T10:41:17;1999.90;;;999.90;;
24173;SDS011;12324;48.146;11.502;2022-11-15T10:43:45;1999.90;;;999.90;;
24173;SDS011;12324;48.146;11.502;2022-11-15T10:46:19;1999.90;;;999.90;;
24173;SDS011;12324;48.146;11.502;2022-11-15T10:49:20;1999.90;;;999.90;;
24173;SDS011;12324;48.146;11.502;2022-11-15T10:51:57;1999.90;;;999.90;;
24173;SDS011;12324;48.146;11.502;2022-11-15T10:56:52;1999.90;;;999.90;;
24173;SDS011;12324;48.146;11.502;2022-11-15T10:59:30;1999.90;;;999.90;;
24173;SDS011;12324;48.146;11.502;2022-11-15T11:04:50;1999.90;;;999.90;;
24173;SDS011;12324;48.146;11.502;2022-11-15T11:07:21;1999.90;;;999.90;;
24173;SDS011;12324;48.146;11.502;2022-11-15T11:10:03;1999.90;;;999.90;;
24173;SDS011;12324;48.146;11.502;2022-11-15T11:12:50;1999.90;;;999.90;;
24173;SDS011;12324;48.146;11.502;2022-11-15T11:15:18;1999.90;;;999.90;;
24173;SDS011;12324;48.146;11.502;2022-11-15T11:18:01;1999.90;;;999.90;;
24173;SDS011;12324;48.146;11.502;2022-11-15T11:20:30;1999.90;;;999.90;;
24173;SDS011;12324;48.146;11.502;2022-11-15T11:23:02;1999.90;;;999.90;;
24173;SDS011;12324;48.146;11.502;2022-11-15T11:33:16;1999.90;;;999.90;;
24173;SDS011;12324;48.146;11.502;2022-11-15T11:38:42;1658.53;;;893.97;;
24173;SDS011;12324;48.146;11.502;2022-11-15T11:41:18;1233.78;;;999.90;;
24173;SDS011;12324;48.146;11.502;2022-11-15T11:46:21;1035.57;;;961.95;;
24173;SDS011;12324;48.146;11.502;2022-11-15T11:48:53;621.42;;;589.33;;
24173;SDS011;12324;48.146;11.502;2022-11-15T11:51:28;107.22;;;102.38;;
24173;SDS011;12324;48.146;11.502;2022-11-15T11:54:03;61.75;;;58.53;;
24173;SDS011;12324;48.146;11.502;2022-11-15T11:56:32;63.42;;;60.22;;
24173;SDS011;12324;48.146;11.502;2022-11-15T11:59:02;87.50;;;83.20;;
24173;SDS011;12324;48.146;11.502;2022-11-15T12:01:37;84.90;;;80.97;;
24173;SDS011;12324;48.146;11.502;2022-11-15T12:04:14;76.18;;;72.35;;
24173;SDS011;12324;48.146;11.502;2022-11-15T12:06:54;87.60;;;83.55;;
24173;SDS011;12324;48.146;11.502;2022-11-15T12:09:38;96.70;;;92.32;;
24173;SDS011;12324;48.146;11.502;2022-11-15T12:12:10;156.35;;;149.88;;
24173;SDS011;12324;48.146;11.502;2022-11-15T12:17:08;213.63;;;205.18;;
24173;SDS011;12324;48.146;11.502;2022-11-15T12:19:35;198.00;;;190.05;;
24173;SDS011;12324;48.146;11.502;2022-11-15T12:24:53;203.05;;;193.77;;
24173;SDS011;12324;48.146;11.502;2022-11-15T12:29:53;168.07;;;161.20;;
24173;SDS011;12324;48.146;11.502;2022-11-15T12:32:24;109.72;;;104.97;;
24173;SDS011;12324;48.146;11.502;2022-11-15T12:34:52;63.50;;;60.13;;
24173;SDS011;12324;48.146;11.502;2022-11-15T12:42:55;63.38;;;60.03;;
24173;SDS011;12324;48.146;11.502;2022-11-15T12:45:28;220.60;;;211.85;;
24173;SDS011;12324;48.146;11.502;2022-11-15T12:51:01;898.45;;;841.38;;
24173;SDS011;12324;48.146;11.502;2022-11-15T12:53:32;1004.33;;;935.97;;
24173;SDS011;12324;48.146;11.502;2022-11-15T13:06:49;184.15;;;176.80;;
24173;SDS011;12324;48.146;11.502;2022-11-15T13:12:11;80.38;;;76.18;;
24173;SDS011;12324;48.146;11.502;2022-11-15T13:14:57;96.03;;;91.45;;
24173;SDS011;12324;48.146;11.502;2022-11-15T13:17:30;130.40;;;124.75;;
24173;SDS011;12324;48.146;11.502;2022-11-15T13:22:42;733.15;;;693.58;;
24173;SDS011;12324;48.146;11.502;2022-11-15T13:25:23;920.58;;;861.80;;
24173;SDS011;12324;48.146;11.502;2022-11-15T13:35:55;1076.90;;;997.95;;
24173;SDS011;12324;48.146;11.502;2022-11-15T13:40:53;1096.53;;;999.90;;
24173;SDS011;12324;48.146;11.502;2022-11-15T13:48:35;1081.18;;;999.38;;
24173;SDS011;12324;48.146;11.502;2022-11-15T13:51:03;1074.65;;;996.50;;
24173;SDS011;12324;48.146;11.502;2022-11-15T13:53:34;1059.90;;;984.58;;
24173;SDS011;12324;48.146;11.502;2022-11-15T13:56:04;1015.05;;;945.33;;
24173;SDS011;12324;48.146;11.502;2022-11-15T13:58:32;980.40;;;914.60;;
24173;SDS011;12324;48.146;11.502;2022-11-15T14:01:01;932.80;;;872.67;;
24173;SDS011;12324;48.146;11.502;2022-11-15T14:03:31;881.67;;;827.70;;
24173;SDS011;12324;48.146;11.502;2022-11-15T14:08:34;635.10;;;603.37;;
24173;SDS011;12324;48.146;11.502;2022-11-15T14:14:11;244.48;;;234.98;;
24173;SDS011;12324;48.146;11.502;2022-11-15T14:16:42;102.43;;;97.82;;
24173;SDS011;12324;48.146;11.502;2022-11-15T14:22:29;94.18;;;89.80;;
24173;SDS011;12324;48.146;11.502;2022-11-15T14:24:41;109.97;;;105.15;;
24173;SDS011;12324;48.146;11.502;2022-11-15T14:27:17;162.13;;;155.07;;
24173;SDS011;12324;48.146;11.502;2022-11-15T14:29:55;282.60;;;271.50;;
24173;SDS011;12324;48.146;11.502;2022-11-15T14:32:22;393.70;;;377.70;;
24173;SDS011;12324;48.146;11.502;2022-11-15T14:35:00;409.67;;;392.70;;
24173;SDS011;12324;48.146;11.502;2022-11-15T14:37:29;361.35;;;346.27;;
24173;SDS011;12324;48.146;11.502;2022-11-15T14:40:02;337.00;;;323.40;;
24173;SDS011;12324;48.146;11.502;2022-11-15T14:42:30;367.77;;;353.00;;
24173;SDS011;12324;48.146;11.502;2022-11-15T14:44:57;327.75;;;314.77;;
24173;SDS011;12324;48.146;11.502;2022-11-15T14:47:24;206.77;;;198.48;;
24173;SDS011;12324;48.146;11.502;2022-11-15T14:49:51;170.57;;;163.48;;
24173;SDS011;12324;48.146;11.502;2022-11-15T14:55:10;155.63;;;149.13;;
24173;SDS011;12324;48.146;11.502;2022-11-15T14:57:46;160.27;;;153.55;;
24173;SDS011;12324;48.146;11.502;2022-11-15T15:00:13;174.95;;;167.63;;
24173;SDS011;12324;48.146;11.502;2022-11-15T15:02:40;186.45;;;178.77;;
24173;SDS011;12324;48.146;11.502;2022-11-15T15:08:07;232.07;;;222.90;;
24173;SDS011;12324;48.146;11.502;2022-11-15T15:10:36;305.90;;;293.08;;
24173;SDS011;12324;48.146;11.502;2022-11-15T15:13:16;376.10;;;360.48;;
24173;SDS011;12324;48.146;11.502;2022-11-15T15:15:44;357.50;;;342.52;;
24173;SDS011;12324;48.146;11.502;2022-11-15T15:18:11;313.15;;;300.48;;
24173;SDS011;12324;48.146;11.502;2022-11-15T15:20:39;276.02;;;265.02;;
24173;SDS011;12324;48.146;11.502;2022-11-15T15:23:13;204.65;;;196.30;;
24173;SDS011;12324;48.146;11.502;2022-11-15T15:25:45;113.22;;;108.03;;
24173;SDS011;12324;48.146;11.502;2022-11-15T15:28:14;117.13;;;111.68;;
24173;SDS011;12324;48.146;11.502;2022-11-15T15:30:42;154.68;;;147.95;;
24173;SDS011;12324;48.146;11.502;2022-11-15T15:33:08;214.10;;;205.30;;
24173;SDS011;12324;48.146;11.502;2022-11-15T15:35:35;287.77;;;275.83;;
24173;SDS011;12324;48.146;11.502;2022-11-15T15:38:02;392.33;;;376.27;;
24173;SDS011;12324;48.146;11.502;2022-11-15T15:40:30;505.48;;;482.83;;
24173;SDS011;12324;48.146;11.502;2022-11-15T15:42:59;627.00;;;596.20;;
24173;SDS011;12324;48.146;11.502;2022-11-15T15:45:26;730.35;;;691.53;;
24173;SDS011;12324;48.146;11.502;2022-11-15T15:47:53;822.30;;;774.40;;
24173;SDS011;12324;48.146;11.502;2022-11-15T15:52:54;963.05;;;898.42;;
24173;SDS011;12324;48.146;11.502;2022-11-15T15:55:23;1023.90;;;952.53;;
24173;SDS011;12324;48.146;11.502;2022-11-15T15:57:50;1081.30;;;999.63;;
24173;SDS011;12324;48.146;11.502;2022-11-15T16:00:17;1128.03;;;999.90;;
24173;SDS011;12324;48.146;11.502;2022-11-15T16:02:45;1156.78;;;999.90;;
24173;SDS011;12324;48.146;11.502;2022-11-15T16:05:12;1178.28;;;999.90;;
24173;SDS011;12324;48.146;11.502;2022-11-15T16:07:39;1206.65;;;999.90;;
24173;SDS011;12324;48.146;11.502;2022-11-15T16:12:53;1252.38;;;999.90;;
24173;SDS011;12324;48.146;11.502;2022-11-15T16:15:22;1999.90;;;999.90;;
24173;SDS011;12324;48.146;11.502;2022-11-15T16:17:51;1999.90;;;999.90;;